Tunnel Hill, Illinois
Current Conditions -  °F | °C
As of 11:53 AM on Wednesday 26 Nov 2014 (Local Time) from KMWA Reporting Station
Overcast Overcast  
Wind Chill: 36°   Ceiling: 25000
Heat Index: 41°   Visibility: 20mi
Dew Point: 30°   Wind: 8mph
Humidity: 65%   Direction: 140°SE
Pressure: 30.04"   Gusts: NA
Location:  37.52°N, 88.84°W
Report Text: KMWA 261753Z 14007KT 20SM SCT080 OVC250 05/M01 A3004
Loading
Personal Weather Stations






























Interactive Weather Map New forecast layout! Learn more

10-Day Weather Forecast

Advertisements
Track Severe Weather on mobile